Time;durP1;ratioP1;P1;durP2;ratioP2;P2;SDS_P1;SDS_P2;PMS_P1;PMS_P2;Temp;Humidity;BMP_temperature;BMP_pressure;BME280_temperature;BME280_humidity;BME280_pressure;Samples;Min_cycle;Max_cycle;Signal;HPM_P1;HPM_P2
2024/01/18 00:00:17;;;;;;;;;;;;;;;4.31;61.02;99258.19;4997062;28;19969;-85
2024/01/18 00:02:42;;;;;;;;;;;;;;;4.34;61.26;99254.44;4997114;28;19917;-86
2024/01/18 00:05:08;;;;;;;;;;;;;;;4.36;61.14;99255.94;4978653;28;19913;-85
2024/01/18 00:07:33;;;;;;;;;;;;;;;4.32;61.62;99249.38;4995826;28;19914;-86
2024/01/18 00:09:58;;;;;;;;;;;;;;;4.32;61.92;99243.31;4995575;28;19918;-86
2024/01/18 00:12:24;;;;;;;;;;;;;;;4.29;61.38;99233.97;4978241;28;19918;-87
2024/01/18 00:15:06;;;;;;;;;;;;;;;4.28;61.15;99232.34;4978939;28;19961;-84
2024/01/18 00:17:45;;;;;;;;;;;;;;;4.32;61.20;99225.03;4999619;28;19922;-86
2024/01/18 00:20:11;;;;;;;;;;;;;;;4.37;61.39;99225.41;4996548;28;19968;-85
2024/01/18 00:22:36;;;;;;;;;;;;;;;4.39;61.10;99219.06;4996827;28;19913;-84
2024/01/18 00:25:01;;;;;;;;;;;;;;;4.38;61.39;99221.84;4996790;28;19914;-86
2024/01/18 00:27:32;;;;;;;;;;;;;;;4.38;61.06;99225.25;4995869;28;19921;-86
2024/01/18 00:29:58;;;;;;;;;;;;;;;4.40;61.23;99230.34;5006507;28;19913;-85
2024/01/18 00:32:45;;;;;;;;;;;;;;;4.42;60.86;99239.69;4995578;28;19920;-85
2024/01/18 00:35:10;;;;;;;;;;;;;;;4.45;61.39;99241.19;4995828;28;19922;-85
2024/01/18 00:37:36;;;;;;;;;;;;;;;4.42;61.13;99236.25;4995136;28;19921;-85
2024/01/18 00:40:01;;;;;;;;;;;;;;;4.46;61.04;99240.25;4995413;28;20403;-86
2024/01/18 00:42:26;;;;;;;;;;;;;;;4.49;61.32;99239.94;4994769;28;20385;-87
2024/01/18 00:44:51;;;;;;;;;;;;;;;4.52;60.86;99237.03;4994854;28;20005;-86
2024/01/18 00:47:17;;;;;;;;;;;;;;;4.52;61.34;99233.59;4994643;28;19914;-87
2024/01/18 00:49:43;;;;;;;;;;;;;;;4.49;61.09;99231.28;4994372;28;19945;-86
2024/01/18 00:52:08;;;;;;;;;;;;;;;4.46;61.17;99224.56;4976963;28;19956;-87
2024/01/18 00:54:34;;;;;;;;;;;;;;;4.46;61.07;99219.34;4993540;28;19917;-87
2024/01/18 00:56:59;;;;;;;;;;;;;;;4.45;61.24;99209.81;4976745;28;19914;-86
2024/01/18 00:59:25;;;;;;;;;;;;;;;4.46;61.05;99203.66;4976849;28;19920;-87
2024/01/18 01:01:50;;;;;;;;;;;;;;;4.44;61.53;99200.34;4994289;28;19914;-87
2024/01/18 01:04:15;;;;;;;;;;;;;;;4.44;60.96;99201.16;4976877;28;19921;-85
2024/01/18 01:06:40;;;;;;;;;;;;;;;4.46;61.05;99194.00;4994594;28;19921;-86
2024/01/18 01:09:06;;;;;;;;;;;;;;;4.50;61.17;99191.94;4994569;28;19921;-87
2024/01/18 01:11:31;;;;;;;;;;;;;;;4.49;61.57;99179.81;4976839;28;20475;-86
2024/01/18 01:13:56;;;;;;;;;;;;;;;4.48;61.25;99183.41;4994027;28;20000;-86
2024/01/18 01:16:22;;;;;;;;;;;;;;;4.50;60.88;99184.09;4994365;28;19914;-86
2024/01/18 01:18:47;;;;;;;;;;;;;;;4.52;61.38;99178.72;4976694;28;19944;-86
2024/01/18 01:21:12;;;;;;;;;;;;;;;4.55;60.90;99179.25;4997210;28;19933;-88
2024/01/18 01:23:48;;;;;;;;;;;;;;;4.53;61.60;99175.13;4996487;28;19918;-83
2024/01/18 01:26:13;;;;;;;;;;;;;;;4.53;60.83;99170.72;4996075;28;19922;-83
2024/01/18 01:28:39;;;;;;;;;;;;;;;4.56;60.93;99166.97;4995381;28;19968;-86
2024/01/18 01:31:04;;;;;;;;;;;;;;;4.58;61.10;99168.47;4993773;28;19922;-86
2024/01/18 01:33:29;;;;;;;;;;;;;;;4.60;61.00;99165.72;4993692;28;19925;-87
2024/01/18 01:35:55;;;;;;;;;;;;;;;4.60;61.19;99157.88;4993608;28;19972;-87
2024/01/18 01:38:20;;;;;;;;;;;;;;;4.58;61.15;99158.03;4993761;28;19921;-87
2024/01/18 01:40:45;;;;;;;;;;;;;;;4.61;61.03;99154.28;4993598;28;19993;-87
2024/01/18 01:43:10;;;;;;;;;;;;;;;4.64;60.74;99146.97;4976092;28;19913;-88
2024/01/18 01:45:36;;;;;;;;;;;;;;;4.67;60.96;99143.22;4993376;28;19921;-88
2024/01/18 01:48:01;;;;;;;;;;;;;;;4.68;61.49;99145.69;4976007;28;19913;-87
2024/01/18 01:50:27;;;;;;;;;;;;;;;4.64;61.82;99136.50;4993373;28;20053;-87
2024/01/18 01:52:52;;;;;;;;;;;;;;;4.65;61.11;99139.94;4975910;28;20175;-88
2024/01/18 01:55:17;;;;;;;;;;;;;;;4.65;61.23;99138.16;4975649;28;19917;-87
2024/01/18 01:57:44;;;;;;;;;;;;;;;4.68;61.16;99132.63;4993133;28;19914;-87
2024/01/18 02:00:10;;;;;;;;;;;;;;;4.66;61.34;99126.72;4993210;28;19920;-87
2024/01/18 02:02:35;;;;;;;;;;;;;;;4.68;61.43;99121.34;4976325;28;19917;-88
2024/01/18 02:05:01;;;;;;;;;;;;;;;4.64;62.00;99120.81;5011144;28;19914;-88
2024/01/18 02:07:28;;;;;;;;;;;;;;;4.64;61.64;99118.19;4990842;28;19914;-88
2024/01/18 02:09:54;;;;;;;;;;;;;;;4.65;61.40;99113.78;4975640;28;19921;-88
2024/01/18 02:12:19;;;;;;;;;;;;;;;4.64;61.52;99118.19;4975713;28;19913;-88
2024/01/18 02:14:44;;;;;;;;;;;;;;;4.68;61.09;99110.88;4975561;28;20421;-87
2024/01/18 02:17:10;;;;;;;;;;;;;;;4.75;61.06;99111.91;4993215;28;20430;-86
2024/01/18 02:19:35;;;;;;;;;;;;;;;4.77;60.98;99108.19;4975215;28;19922;-88
2024/01/18 02:22:02;;;;;;;;;;;;;;;4.77;61.24;99104.75;4975294;28;19914;-87
2024/01/18 02:24:32;;;;;;;;;;;;;;;4.75;61.41;99102.28;4993031;28;19914;-88
2024/01/18 02:26:58;;;;;;;;;;;;;;;4.74;61.57;99097.19;4993092;28;19914;-87
2024/01/18 02:29:23;;;;;;;;;;;;;;;4.72;61.70;99099.97;4992971;28;19913;-87
2024/01/18 02:31:48;;;;;;;;;;;;;;;4.74;61.58;99105.03;4993164;28;19913;-86
2024/01/18 02:34:15;;;;;;;;;;;;;;;4.76;61.80;99098.69;4992738;28;19924;-87
2024/01/18 02:36:41;;;;;;;;;;;;;;;4.78;60.87;99101.16;4992845;28;19914;-87
2024/01/18 02:39:06;;;;;;;;;;;;;;;4.79;61.36;99100.19;4992713;28;19914;-87
2024/01/18 02:41:32;;;;;;;;;;;;;;;4.81;60.73;99100.03;4975272;28;20387;-87
2024/01/18 02:43:58;;;;;;;;;;;;;;;4.81;60.56;99098.22;4992874;28;20040;-87
2024/01/18 02:46:23;;;;;;;;;;;;;;;4.82;60.49;99096.44;4992447;28;19921;-86
2024/01/18 02:48:48;;;;;;;;;;;;;;;4.80;61.22;99093.97;4975046;28;19914;-87
2024/01/18 02:51:14;;;;;;;;;;;;;;;4.82;60.98;99093.81;4974984;28;19913;-86
2024/01/18 02:53:39;;;;;;;;;;;;;;;4.76;61.71;99084.78;4992939;28;19925;-86
2024/01/18 02:56:05;;;;;;;;;;;;;;;4.73;61.88;99087.72;4992287;28;20379;-87
2024/01/18 02:58:30;;;;;;;;;;;;;;;4.74;61.83;99090.16;4974837;28;19913;-87
2024/01/18 03:00:55;;;;;;;;;;;;;;;4.78;61.03;99086.28;4992385;28;20008;-85
2024/01/18 03:03:21;;;;;;;;;;;;;;;4.77;61.11;99086.44;4992328;28;20294;-86
2024/01/18 03:05:46;;;;;;;;;;;;;;;4.75;61.94;99089.19;4992402;28;19920;-87
2024/01/18 03:08:11;;;;;;;;;;;;;;;4.76;61.52;99077.75;4992360;28;19972;-87
2024/01/18 03:10:37;;;;;;;;;;;;;;;4.80;60.89;99086.13;4974807;28;19921;-86
2024/01/18 03:13:02;;;;;;;;;;;;;;;4.78;61.55;99088.91;4974852;28;19913;-87
2024/01/18 03:15:27;;;;;;;;;;;;;;;4.77;61.80;99083.81;4992170;28;19922;-87
2024/01/18 03:17:53;;;;;;;;;;;;;;;4.79;62.02;99087.09;4995827;28;20367;-87
2024/01/18 03:20:18;;;;;;;;;;;;;;;4.80;61.10;99083.50;4978589;28;19969;-88
2024/01/18 03:22:43;;;;;;;;;;;;;;;4.79;61.62;99071.41;4978732;28;19921;-86
2024/01/18 03:25:08;;;;;;;;;;;;;;;4.78;61.77;99077.63;4995971;28;19905;-87
2024/01/18 03:27:34;;;;;;;;;;;;;;;4.77;62.35;99081.19;4978349;28;20284;-88
2024/01/18 03:29:59;;;;;;;;;;;;;;;4.77;62.13;99083.81;4995810;28;19914;-87
2024/01/18 03:32:25;;;;;;;;;;;;;;;4.76;62.46;99088.22;4978252;28;19913;-87
2024/01/18 03:34:50;;;;;;;;;;;;;;;4.80;61.88;99088.75;4995880;28;19961;-87
2024/01/18 03:37:15;;;;;;;;;;;;;;;4.83;62.91;99095.47;4978563;28;20315;-87
2024/01/18 03:39:40;;;;;;;;;;;;;;;4.83;62.18;99082.38;4995959;28;20311;-89
2024/01/18 03:42:06;;;;;;;;;;;;;;;4.85;62.47;99076.03;5006629;28;19969;-87
2024/01/18 03:44:33;;;;;;;;;;;;;;;4.86;62.49;99079.47;5005769;28;19914;-87
2024/01/18 03:46:59;;;;;;;;;;;;;;;4.85;63.13;99078.66;4995612;28;20001;-87
2024/01/18 03:49:25;;;;;;;;;;;;;;;4.84;62.97;99076.19;4978047;28;19917;-87
2024/01/18 03:51:50;;;;;;;;;;;;;;;4.83;63.91;99077.16;4978125;28;19914;-87
2024/01/18 03:54:15;;;;;;;;;;;;;;;4.84;63.61;99076.19;4995461;28;19972;-87
2024/01/18 03:56:41;;;;;;;;;;;;;;;4.81;63.71;99089.56;4995484;28;20311;-87
2024/01/18 03:59:06;;;;;;;;;;;;;;;4.87;63.32;99083.72;4995288;28;19964;-87
2024/01/18 04:01:32;;;;;;;;;;;;;;;4.87;64.38;99081.94;4977535;28;19910;-87
2024/01/18 04:03:57;;;;;;;;;;;;;;;4.84;64.83;99082.22;4995342;28;19914;-86
2024/01/18 04:06:22;;;;;;;;;;;;;;;4.84;64.23;99086.66;4977811;28;19917;-87
2024/01/18 04:08:48;;;;;;;;;;;;;;;4.84;63.51;99079.63;4995159;28;19913;-87
2024/01/18 04:11:13;;;;;;;;;;;;;;;4.81;64.45;99095.63;4995312;28;19914;-87
2024/01/18 04:16:22;;;;;;;;;;;;;;;4.84;63.59;99084.84;4995675;28;19920;-87
2024/01/18 04:18:48;;;;;;;;;;;;;;;4.84;64.93;99077.00;4995080;28;20307;-87
2024/01/18 04:21:13;;;;;;;;;;;;;;;4.85;64.25;99073.41;4994609;28;20008;-87
2024/01/18 04:23:39;;;;;;;;;;;;;;;4.87;64.84;99075.88;4994935;28;20409;-87
2024/01/18 04:26:04;;;;;;;;;;;;;;;4.91;63.93;99078.03;4994944;28;19921;-86
2024/01/18 04:28:29;;;;;;;;;;;;;;;4.91;65.24;99072.81;4976481;28;19914;-87
2024/01/18 04:30:55;;;;;;;;;;;;;;;4.93;64.60;99078.69;4994885;28;19913;-87
2024/01/18 04:33:20;;;;;;;;;;;;;;;4.92;65.70;99058.75;4994699;28;19914;-87
2024/01/18 04:35:45;;;;;;;;;;;;;;;4.93;65.75;99067.41;4994617;28;20368;-87
2024/01/18 04:38:11;;;;;;;;;;;;;;;4.92;64.71;99058.75;4994853;28;19914;-86
2024/01/18 04:40:36;;;;;;;;;;;;;;;4.94;64.47;99063.81;4995235;28;19953;-83
2024/01/18 04:43:02;;;;;;;;;;;;;;;4.93;65.33;99063.00;4977675;28;19920;-83
2024/01/18 04:45:27;;;;;;;;;;;;;;;4.95;62.50;99063.66;4977046;28;19922;-86
2024/01/18 04:47:53;;;;;;;;;;;;;;;4.91;65.85;99064.94;4977213;28;19975;-87
2024/01/18 04:50:24;;;;;;;;;;;;;;;4.92;65.83;99066.59;4994446;28;19913;-89
2024/01/18 04:52:50;;;;;;;;;;;;;;;4.95;64.62;99066.28;4977115;28;19972;-88
2024/01/18 04:55:15;;;;;;;;;;;;;;;4.96;66.01;99060.06;4994133;28;19949;-87
2024/01/18 04:57:40;;;;;;;;;;;;;;;4.98;65.41;99060.75;4994162;28;19914;-87
2024/01/18 05:00:12;;;;;;;;;;;;;;;5.02;63.71;99054.22;4976747;28;19953;-86
2024/01/18 05:02:40;;;;;;;;;;;;;;;5.03;66.15;99068.13;4976643;28;20005;-87
2024/01/18 05:05:08;;;;;;;;;;;;;;;5.02;66.03;99067.31;4994012;28;19997;-89
2024/01/18 05:07:33;;;;;;;;;;;;;;;5.07;65.89;99070.28;4993947;28;20362;-87
2024/01/18 05:09:59;;;;;;;;;;;;;;;5.09;66.85;99064.91;4976654;28;19971;-87
2024/01/18 05:12:24;;;;;;;;;;;;;;;5.09;65.80;99055.25;4993867;28;19996;-88
2024/01/18 05:14:49;;;;;;;;;;;;;;;5.07;67.16;99059.81;4993956;28;20307;-88
2024/01/18 05:17:16;;;;;;;;;;;;;;;5.06;67.28;99065.22;4993778;28;19914;-88
2024/01/18 05:19:41;;;;;;;;;;;;;;;5.04;67.81;99061.94;4976272;28;20395;-89
2024/01/18 05:22:07;;;;;;;;;;;;;;;5.04;68.36;99062.75;4993808;28;19920;-88
2024/01/18 05:24:33;;;;;;;;;;;;;;;5.04;67.97;99059.31;4994004;28;19918;-87
2024/01/18 05:26:58;;;;;;;;;;;;;;;5.04;67.85;99061.94;4976213;28;19913;-87
2024/01/18 05:29:23;;;;;;;;;;;;;;;5.07;68.20;99059.00;4993705;28;19949;-88
2024/01/18 05:31:48;;;;;;;;;;;;;;;5.08;68.34;99056.22;4993693;28;19914;-88
2024/01/18 05:34:14;;;;;;;;;;;;;;;5.08;67.64;99056.22;4993503;28;19917;-88
2024/01/18 05:36:39;;;;;;;;;;;;;;;5.08;67.34;99056.22;4993729;28;19969;-87
2024/01/18 05:39:04;;;;;;;;;;;;;;;5.10;66.50;99043.00;4975973;28;19913;-87
2024/01/18 05:41:30;;;;;;;;;;;;;;;5.08;67.40;99042.31;4976418;28;19914;-88
2024/01/18 05:43:55;;;;;;;;;;;;;;;5.07;68.30;99033.66;4993506;28;19914;-88
2024/01/18 05:46:22;;;;;;;;;;;;;;;5.08;66.71;99030.06;4993192;28;19914;-88
2024/01/18 05:48:48;;;;;;;;;;;;;;;5.09;67.37;99030.88;4993239;28;20004;-89
2024/01/18 05:51:13;;;;;;;;;;;;;;;5.14;66.84;99025.19;4993367;28;19957;-88
2024/01/18 05:53:38;;;;;;;;;;;;;;;5.16;65.06;99034.50;4975810;28;20430;-88
2024/01/18 05:56:04;;;;;;;;;;;;;;;5.15;66.14;99024.22;4993066;28;19972;-87
2024/01/18 05:58:31;;;;;;;;;;;;;;;5.17;64.28;99024.88;4975715;28;20313;-88
2024/01/18 06:00:56;;;;;;;;;;;;;;;5.11;66.88;99016.66;4975793;28;19921;-88
2024/01/18 06:03:21;;;;;;;;;;;;;;;5.09;67.40;99016.00;4993407;28;19906;-87
2024/01/18 06:05:46;;;;;;;;;;;;;;;5.11;67.22;99028.94;4993405;28;19921;-88
2024/01/18 06:08:12;;;;;;;;;;;;;;;5.14;65.80;99022.56;4992923;28;19933;-87
2024/01/18 06:10:37;;;;;;;;;;;;;;;5.15;66.87;99016.34;4975146;28;19929;-87
2024/01/18 06:13:02;;;;;;;;;;;;;;;5.18;66.62;99021.28;4975333;28;19945;-87
2024/01/18 06:15:28;;;;;;;;;;;;;;;5.14;67.08;99020.78;4992980;28;19941;-88
2024/01/18 06:17:53;;;;;;;;;;;;;;;5.11;67.27;99021.06;4975508;28;19921;-88
2024/01/18 06:20:18;;;;;;;;;;;;;;;5.13;68.06;99028.78;4992634;28;19931;-88
2024/01/18 06:22:43;;;;;;;;;;;;;;;5.13;67.97;99028.78;4975371;28;19914;-87
2024/01/18 06:25:09;;;;;;;;;;;;;;;5.15;64.89;99018.97;4992993;28;20382;-89
2024/01/18 06:27:35;;;;;;;;;;;;;;;5.21;66.96;99036.69;4992974;28;19914;-87
2024/01/18 06:30:00;;;;;;;;;;;;;;;5.21;67.51;99024.44;4975570;28;19914;-87
2024/01/18 06:32:26;;;;;;;;;;;;;;;5.23;67.34;99037.38;4975119;28;19996;-88
2024/01/18 06:34:51;;;;;;;;;;;;;;;5.28;66.48;99035.09;4992740;28;20331;-89
2024/01/18 06:37:16;;;;;;;;;;;;;;;5.29;66.24;99037.56;4992681;28;19914;-88
2024/01/18 06:39:42;;;;;;;;;;;;;;;5.31;66.58;99034.78;4975158;28;20370;-89
2024/01/18 06:42:08;;;;;;;;;;;;;;;5.33;66.20;99043.28;4992903;28;19921;-87
2024/01/18 06:44:33;;;;;;;;;;;;;;;5.34;66.18;99037.91;4992853;28;19913;-89
2024/01/18 06:47:00;;;;;;;;;;;;;;;5.32;66.73;99034.63;5007695;28;19925;-88
2024/01/18 06:49:26;;;;;;;;;;;;;;;5.32;66.36;99039.03;5013339;28;19914;-89
2024/01/18 06:51:51;;;;;;;;;;;;;;;5.33;66.16;99038.88;4992273;28;20002;-89
2024/01/18 06:54:21;;;;;;;;;;;;;;;5.33;66.23;99030.22;4976044;28;19922;-90
2024/01/18 06:56:47;;;;;;;;;;;;;;;5.32;66.77;99023.34;4975236;28;20001;-87
2024/01/18 06:59:12;;;;;;;;;;;;;;;5.32;65.98;99023.34;4992605;28;19956;-89
2024/01/18 07:01:37;;;;;;;;;;;;;;;5.33;65.80;99025.78;4975252;28;19953;-88
2024/01/18 07:04:02;;;;;;;;;;;;;;;5.33;66.22;99017.94;4973285;28;20371;-89
2024/01/18 07:06:28;;;;;;;;;;;;;;;5.35;66.10;99015.16;4984709;28;19925;-89
2024/01/18 07:08:53;;;;;;;;;;;;;;;5.36;66.48;99019.41;4992353;28;20307;-90
2024/01/18 07:11:18;;;;;;;;;;;;;;;5.37;66.11;99014.03;4974835;28;19953;-89
2024/01/18 07:13:44;;;;;;;;;;;;;;;5.39;66.33;99009.47;4992372;28;20060;-90
2024/01/18 07:16:09;;;;;;;;;;;;;;;5.41;66.29;99004.88;4958251;28;19925;-89
2024/01/18 07:18:36;;;;;;;;;;;;;;;5.45;66.50;99008.00;4971815;28;20558;-89
2024/01/18 07:21:01;;;;;;;;;;;;;;;5.46;66.08;99007.03;4972581;28;19922;-88
2024/01/18 07:23:28;;;;;;;;;;;;;;;5.48;66.53;99004.25;4982578;28;19921;-89
2024/01/18 07:25:53;;;;;;;;;;;;;;;5.47;67.33;99003.44;4974699;28;19917;-89
2024/01/18 07:28:19;;;;;;;;;;;;;;;5.49;66.44;99008.50;4960306;28;19918;-89
2024/01/18 07:30:45;;;;;;;;;;;;;;;5.49;66.43;99005.88;4970202;28;19918;-89
2024/01/18 07:33:10;;;;;;;;;;;;;;;5.51;66.89;99003.94;4991877;28;19973;-89
2024/01/18 07:35:35;;;;;;;;;;;;;;;5.52;68.49;98995.91;4986615;28;19926;-88
2024/01/18 07:38:00;;;;;;;;;;;;;;;5.40;68.09;99012.91;4955160;28;19920;-89
2024/01/18 07:40:26;;;;;;;;;;;;;;;5.36;67.63;99006.34;4964961;28;20001;-88
2024/01/18 07:42:51;;;;;;;;;;;;;;;5.38;69.23;99009.63;4974439;28;19914;-89
2024/01/18 07:45:16;;;;;;;;;;;;;;;5.38;67.18;99002.59;4991693;28;19967;-89
2024/01/18 07:47:42;;;;;;;;;;;;;;;5.41;68.39;99004.88;4973628;28;19918;-91
2024/01/18 07:50:09;;;;;;;;;;;;;;;5.42;67.61;98995.22;4974458;28;20315;-89
2024/01/18 07:52:35;;;;;;;;;;;;;;;5.47;67.38;98979.88;4979045;28;19924;-90
2024/01/18 07:55:00;;;;;;;;;;;;;;;5.53;67.02;98979.22;4962320;28;19922;-89
2024/01/18 07:57:25;;;;;;;;;;;;;;;5.56;67.26;98984.16;4983709;28;19918;-89
2024/01/18 07:59:51;;;;;;;;;;;;;;;5.62;66.35;98980.88;4975497;28;19917;-89
2024/01/18 08:02:16;;;;;;;;;;;;;;;5.67;65.84;98968.13;4974191;28;19913;-89
2024/01/18 08:04:41;;;;;;;;;;;;;;;5.73;66.63;98977.97;4994756;28;19914;-89
2024/01/18 08:07:06;;;;;;;;;;;;;;;5.84;66.15;98983.88;4958928;28;19957;-88
2024/01/18 08:09:32;;;;;;;;;;;;;;;5.86;66.23;98984.53;4959200;28;19930;-89
2024/01/18 08:11:57;;;;;;;;;;;;;;;5.91;67.23;98985.72;4975962;28;19923;-90
2024/01/18 08:14:23;;;;;;;;;;;;;;;6.00;66.06;98987.41;4961077;28;20370;-88
2024/01/18 08:16:48;;;;;;;;;;;;;;;6.07;65.37;98977.06;4976561;28;19925;-88
2024/01/18 08:19:13;;;;;;;;;;;;;;;6.12;65.31;98979.22;4970775;28;20445;-88
2024/01/18 08:21:43;;;;;;;;;;;;;;;6.20;65.46;98979.22;4968466;28;19925;-88
2024/01/18 08:24:09;;;;;;;;;;;;;;;6.27;65.42;98974.94;4957979;28;19915;-88
2024/01/18 08:26:34;;;;;;;;;;;;;;;6.35;65.20;98973.16;4957861;28;19937;-88
2024/01/18 08:28:59;;;;;;;;;;;;;;;6.41;65.31;98981.34;4958655;28;19918;-89
2024/01/18 08:31:25;;;;;;;;;;;;;;;6.46;64.80;98981.66;4990822;28;19914;-90
2024/01/18 08:33:50;;;;;;;;;;;;;;;6.54;64.40;98973.78;4994487;28;19918;-89
2024/01/18 08:36:15;;;;;;;;;;;;;;;6.63;63.94;98959.66;4977026;28;20007;-89
2024/01/18 08:38:41;;;;;;;;;;;;;;;6.70;63.40;98963.28;4994579;28;19918;-89
2024/01/18 08:41:06;;;;;;;;;;;;;;;6.79;63.52;98957.03;4978692;28;19910;-90
2024/01/18 08:43:31;;;;;;;;;;;;;;;6.89;64.29;98949.78;4984219;28;19922;-91
2024/01/18 08:45:56;;;;;;;;;;;;;;;6.97;63.64;98964.69;4957999;28;20013;-90
2024/01/18 08:48:22;;;;;;;;;;;;;;;7.04;63.51;98965.66;4964650;28;19957;-87
2024/01/18 08:50:47;;;;;;;;;;;;;;;7.15;63.39;98956.59;4990075;28;20415;-88
2024/01/18 08:53:12;;;;;;;;;;;;;;;7.27;62.94;98960.47;4966673;28;20355;-90
2024/01/18 08:55:38;;;;;;;;;;;;;;;7.36;61.95;98961.25;4977368;28;19930;-87
2024/01/18 08:58:04;;;;;;;;;;;;;;;7.40;62.44;98946.78;4977423;28;20362;-87
2024/01/18 09:00:29;;;;;;;;;;;;;;;7.43;61.29;98949.91;4971242;28;19918;-88
2024/01/18 09:02:55;;;;;;;;;;;;;;;7.41;61.04;98951.84;4957870;28;19918;-89
2024/01/18 09:05:20;;;;;;;;;;;;;;;7.45;61.60;98947.94;4983954;28;19972;-88
2024/01/18 09:07:45;;;;;;;;;;;;;;;7.47;62.21;98939.88;4971264;28;19918;-89
2024/01/18 09:10:11;;;;;;;;;;;;;;;7.45;61.81;98921.66;4974844;28;19918;-88
2024/01/18 09:12:36;;;;;;;;;;;;;;;7.43;62.18;98930.69;4957588;28;19983;-88
2024/01/18 09:15:03;;;;;;;;;;;;;;;7.41;61.82;98920.34;4978469;28;20426;-88
2024/01/18 09:17:28;;;;;;;;;;;;;;;7.39;63.12;98914.44;4994476;28;19921;-88
2024/01/18 09:19:53;;;;;;;;;;;;;;;7.39;62.82;98917.06;4993366;28;19922;-88
2024/01/18 09:22:19;;;;;;;;;;;;;;;7.39;63.62;98911.81;4976922;28;20376;-88
2024/01/18 09:24:44;;;;;;;;;;;;;;;7.39;64.24;98901.31;4973114;28;20024;-88
2024/01/18 09:27:12;;;;;;;;;;;;;;;7.42;62.33;98897.53;4981707;28;20388;-89
2024/01/18 09:29:37;;;;;;;;;;;;;;;7.41;62.35;98894.09;4957079;28;19914;-89
2024/01/18 09:32:03;;;;;;;;;;;;;;;7.40;63.19;98895.06;4956912;28;19914;-87
2024/01/18 09:34:29;;;;;;;;;;;;;;;7.39;62.62;98884.75;4956645;28;19918;-88
2024/01/18 09:36:54;;;;;;;;;;;;;;;7.40;62.76;98881.13;4992408;28;19914;-86
2024/01/18 09:39:19;;;;;;;;;;;;;;;7.43;63.35;98892.13;4992159;28;19922;-87
2024/01/18 09:41:52;;;;;;;;;;;;;;;7.45;64.04;98876.19;4984086;28;20017;-86
2024/01/18 09:44:25;;;;;;;;;;;;;;;7.47;63.39;98858.47;4978082;28;20390;-84
2024/01/18 09:46:51;;;;;;;;;;;;;;;7.01;63.98;98758.66;4991637;28;19917;-86
2024/01/18 09:49:17;;;;;;;;;;;;;;;7.50;63.46;98819.53;4973537;28;19910;-85
2024/01/18 09:51:43;;;;;;;;;;;;;;;7.50;63.88;98795.06;4984024;28;19917;-86
2024/01/18 09:54:08;;;;;;;;;;;;;;;7.50;63.00;98781.94;4984097;28;19945;-86
2024/01/18 09:56:36;;;;;;;;;;;;;;;7.49;63.53;98765.34;4976019;28;20371;-86
2024/01/18 09:59:03;;;;;;;;;;;;;;;7.50;62.01;98758.28;4975514;28;20368;-87
2024/01/18 10:01:30;;;;;;;;;;;;;;;7.46;64.19;98746.50;4956087;28;19929;-86
2024/01/18 10:03:55;;;;;;;;;;;;;;;7.46;62.88;98726.31;4973534;28;19915;-87
2024/01/18 10:06:21;;;;;;;;;;;;;;;7.46;64.50;98743.88;4961749;28;20048;-87
2024/01/18 10:08:47;;;;;;;;;;;;;;;7.47;65.87;98740.25;4990029;28;19917;-86
2024/01/18 10:11:12;;;;;;;;;;;;;;;7.48;64.79;98731.38;4991761;28;19918;-88
2024/01/18 10:14:07;;;;;;;;;;;;;;;7.53;66.04;98729.03;4981996;28;19925;-88
2024/01/18 10:16:33;;;;;;;;;;;;;;;7.58;66.29;98727.53;4960695;28;20383;-88
2024/01/18 10:19:02;;;;;;;;;;;;;;;7.64;66.83;98752.25;5002447;28;19914;-87
2024/01/18 10:21:28;;;;;;;;;;;;;;;7.64;67.69;98792.47;5012458;28;20390;-87
2024/01/18 10:23:54;;;;;;;;;;;;;;;7.62;69.08;98801.53;4966437;28;19918;-88
2024/01/18 10:26:26;;;;;;;;;;;;;;;7.60;68.92;98785.13;4972451;28;19914;-87
2024/01/18 10:28:52;;;;;;;;;;;;;;;7.57;67.38;98778.41;4981332;28;19917;-88
2024/01/18 10:31:17;;;;;;;;;;;;;;;7.56;65.66;98770.72;4991630;28;19913;-88
2024/01/18 10:33:44;;;;;;;;;;;;;;;7.59;66.70;98758.03;4988666;28;19957;-89
2024/01/18 10:36:09;;;;;;;;;;;;;;;7.62;66.63;98747.19;4990549;28;19922;-88
2024/01/18 10:38:35;;;;;;;;;;;;;;;7.65;67.33;98730.25;4981550;28;19929;-88
2024/01/18 10:41:01;;;;;;;;;;;;;;;7.67;68.01;98724.81;4959928;28;20400;-88
2024/01/18 10:43:30;;;;;;;;;;;;;;;7.70;66.86;98717.38;4970944;28;19925;-89
2024/01/18 10:45:57;;;;;;;;;;;;;;;7.72;67.47;98725.09;4976577;28;19918;-88
2024/01/18 10:48:22;;;;;;;;;;;;;;;7.70;67.28;98714.75;4978044;28;19914;-89
2024/01/18 10:50:51;;;;;;;;;;;;;;;7.71;67.63;98710.31;4991065;28;20643;-89
2024/01/18 10:53:16;;;;;;;;;;;;;;;7.72;67.10;98702.25;4973925;28;19925;-88
2024/01/18 10:55:41;;;;;;;;;;;;;;;7.73;67.46;98692.56;4990407;28;19921;-89
2024/01/18 10:58:08;;;;;;;;;;;;;;;7.73;67.23;98672.34;4990306;28;19950;-89
2024/01/18 11:00:33;;;;;;;;;;;;;;;7.74;66.95;98668.72;4986643;28;19925;-89
2024/01/18 11:02:59;;;;;;;;;;;;;;;7.74;67.45;98647.72;4990634;28;20374;-89
2024/01/18 11:05:25;;;;;;;;;;;;;;;7.74;66.13;98642.47;4974639;28;19937;-89
2024/01/18 11:07:51;;;;;;;;;;;;;;;7.75;66.83;98638.84;4973599;28;19918;-89
2024/01/18 11:10:16;;;;;;;;;;;;;;;7.79;66.90;98631.41;4959800;28;19925;-89
2024/01/18 11:12:43;;;;;;;;;;;;;;;7.82;67.44;98621.34;4990720;28;19924;-89
2024/01/18 11:15:11;;;;;;;;;;;;;;;7.86;67.15;98606.84;4992174;28;20000;-88
2024/01/18 11:17:46;;;;;;;;;;;;;;;7.94;69.77;98600.66;4982440;28;20318;-89
2024/01/18 11:20:12;;;;;;;;;;;;;;;8.15;67.99;98595.44;4982710;28;19929;-89
2024/01/18 11:22:39;;;;;;;;;;;;;;;8.51;65.67;98597.28;4991816;28;19914;-88
2024/01/18 11:25:05;;;;;;;;;;;;;;;8.93;73.28;98588.56;4991947;28;19997;-88
2024/01/18 11:27:34;;;;;;;;;;;;;;;9.24;69.19;98582.91;4972900;28;19925;-88
2024/01/18 11:29:59;;;;;;;;;;;;;;;9.51;66.99;98563.63;4966642;28;19926;-88
2024/01/18 11:32:25;;;;;;;;;;;;;;;9.79;72.86;98555.66;4980693;28;20017;-88
2024/01/18 11:34:54;;;;;;;;;;;;;;;10.08;76.32;98559.81;4973240;28;19922;-89
2024/01/18 11:37:23;;;;;;;;;;;;;;;10.31;70.79;98563.94;4996304;28;19918;-88
2024/01/18 11:39:52;;;;;;;;;;;;;;;10.50;74.76;98553.44;4993674;28;19999;-88
2024/01/18 11:42:18;;;;;;;;;;;;;;;10.71;71.14;98530.50;4994810;28;19946;-87
2024/01/18 11:45:00;;;;;;;;;;;;;;;10.93;71.57;98521.34;4994402;28;19921;-88
2024/01/18 11:47:29;;;;;;;;;;;;;;;11.07;70.92;98536.16;4994156;28;19913;-86
2024/01/18 11:49:54;;;;;;;;;;;;;;;11.23;70.41;98534.94;4990863;28;20337;-87
2024/01/18 11:52:21;;;;;;;;;;;;;;;11.34;73.55;98529.03;4994346;28;20025;-87
2024/01/18 11:54:50;;;;;;;;;;;;;;;11.40;74.24;98528.19;4993977;28;19924;-86
2024/01/18 11:57:16;;;;;;;;;;;;;;;11.48;72.51;98521.06;4961244;28;19918;-86
2024/01/18 11:59:44;;;;;;;;;;;;;;;11.53;71.40;98511.47;4958889;28;19996;-86
2024/01/18 12:02:12;;;;;;;;;;;;;;;11.57;73.39;98504.75;4993431;28;19969;-87
2024/01/18 12:04:37;;;;;;;;;;;;;;;11.56;71.00;98510.25;4979463;28;19922;-87
2024/01/18 12:07:03;;;;;;;;;;;;;;;11.56;71.32;98503.13;4987570;28;19945;-87
2024/01/18 12:09:30;;;;;;;;;;;;;;;11.61;72.34;98513.88;4993476;28;20008;-87
2024/01/18 12:11:59;;;;;;;;;;;;;;;11.66;74.93;98510.59;4995279;28;19969;-87
2024/01/18 12:14:25;;;;;;;;;;;;;;;11.65;74.49;98499.22;4978073;28;19971;-87
2024/01/18 12:16:50;;;;;;;;;;;;;;;11.67;72.63;98493.72;4977280;28;19992;-87
2024/01/18 12:19:31;;;;;;;;;;;;;;;11.70;72.96;98506.53;4974037;28;20008;-87
2024/01/18 12:21:57;;;;;;;;;;;;;;;11.73;73.38;98495.53;4959392;28;19918;-88
2024/01/18 12:24:22;;;;;;;;;;;;;;;11.78;71.69;98487.81;4958473;28;19972;-87
2024/01/18 12:26:48;;;;;;;;;;;;;;;11.76;69.86;98495.09;4981271;28;19918;-88
2024/01/18 12:29:15;;;;;;;;;;;;;;;11.44;67.25;98502.16;4969167;28;19921;-88
2024/01/18 12:31:40;;;;;;;;;;;;;;;11.12;66.67;98506.50;4987397;28;19918;-87
2024/01/18 12:34:06;;;;;;;;;;;;;;;10.81;66.56;98499.22;4985999;28;21363;-88
2024/01/18 12:36:32;;;;;;;;;;;;;;;10.47;65.67;98493.16;4990511;28;19924;-88
2024/01/18 12:38:57;;;;;;;;;;;;;;;10.19;64.88;98489.84;4991817;28;19917;-88
2024/01/18 12:41:23;;;;;;;;;;;;;;;10.03;66.98;98493.66;4985357;28;19922;-88
2024/01/18 12:43:48;;;;;;;;;;;;;;;9.92;67.10;98490.78;4977543;28;19957;-88
2024/01/18 12:46:14;;;;;;;;;;;;;;;9.83;66.75;98490.16;4994170;28;19964;-88
2024/01/18 12:48:40;;;;;;;;;;;;;;;9.71;66.92;98484.66;4982713;28;20300;-89
2024/01/18 12:51:05;;;;;;;;;;;;;;;9.67;66.83;98480.00;4983236;28;19921;-88